Time;durP1;ratioP1;P1;durP2;ratioP2;P2;SDS_P1;SDS_P2;PMS_P1;PMS_P2;Temp;Humidity;BMP_temperature;BMP_pressure;BME280_temperature;BME280_humidity;BME280_pressure;Samples;Min_cycle;Max_cycle;Signal;HPM_P1;HPM_P2
2023/08/03 00:02:08;;;;;;;;;6.50;6.00;;;;;24.44;100.00;97405.78;6043503;28;96805;-63
2023/08/03 00:05:13;;;;;;;;;3.40;3.40;;;;;24.37;100.00;97421.31;6057291;28;96755;-62
2023/08/03 00:08:16;;;;;;;;;5.00;5.00;;;;;24.28;100.00;97423.38;6058100;28;96414;-62
2023/08/03 00:11:20;;;;;;;;;4.50;4.50;;;;;24.23;100.00;97420.88;6044285;28;96333;-63
2023/08/03 00:14:26;;;;;;;;;5.25;5.25;;;;;24.20;100.00;97418.78;6043827;28;96385;-62
2023/08/03 00:17:29;;;;;;;;;5.00;5.00;;;;;24.18;100.00;97413.66;6042158;28;96532;-63
2023/08/03 00:20:32;;;;;;;;;3.40;3.40;;;;;24.16;100.00;97405.72;6011262;28;96966;-63
2023/08/03 00:23:35;;;;;;;;;6.50;5.50;;;;;24.18;100.00;97405.38;6035138;28;96430;-62
2023/08/03 00:26:40;;;;;;;;;6.00;5.60;;;;;24.11;100.00;97407.88;6051881;28;96403;-63
2023/08/03 00:29:43;;;;;;;;;5.67;5.67;;;;;24.09;100.00;97402.69;6048537;28;96346;-62
2023/08/03 00:32:46;;;;;;;;;5.20;5.20;;;;;24.16;100.00;97408.47;6057902;28;96314;-63
2023/08/03 00:35:49;;;;;;;;;4.00;3.00;;;;;24.17;100.00;97414.78;6033978;28;96792;-64
2023/08/03 00:38:52;;;;;;;;;5.00;5.00;;;;;24.19;100.00;97406.97;6038703;28;97685;-63
2023/08/03 00:41:57;;;;;;;;;4.00;3.00;;;;;24.22;100.00;97411.00;6034613;28;96280;-63
2023/08/03 00:45:01;;;;;;;;;4.00;4.00;;;;;24.19;100.00;97406.97;6040356;28;97622;-63
2023/08/03 00:48:04;;;;;;;;;4.00;4.00;;;;;24.18;100.00;97421.91;6035149;28;96779;-63
2023/08/03 00:51:08;;;;;;;;;4.00;4.00;;;;;24.20;100.00;97413.28;6025211;28;96589;-62
2023/08/03 00:54:11;;;;;;;;;3.00;3.00;;;;;24.23;100.00;97420.88;6025632;28;96687;-62
2023/08/03 00:57:16;;;;;;;;;3.00;2.00;;;;;24.22;100.00;97425.56;6035205;28;97007;-63
2023/08/03 01:00:19;;;;;;;;;3.00;3.00;;;;;24.22;100.00;97417.31;6055499;28;96676;-64
2023/08/03 01:03:24;;;;;;;;;4.60;4.00;;;;;24.21;100.00;97415.69;6055900;28;96920;-63
2023/08/03 01:06:27;;;;;;;;;5.00;5.00;;;;;24.22;100.00;97425.56;6040721;28;97122;-63
2023/08/03 01:09:30;;;;;;;;;3.00;3.00;;;;;24.33;100.00;97434.16;6040181;28;96871;-62
2023/08/03 01:12:36;;;;;;;;;3.00;3.00;;;;;24.44;100.00;97429.78;6040308;28;97231;-62
2023/08/03 01:15:40;;;;;;;;;4.50;4.50;;;;;24.52;100.00;97437.13;6011143;28;96905;-63
2023/08/03 01:18:43;;;;;;;;;5.50;5.00;;;;;24.63;100.00;97438.22;6041914;28;96459;-63
2023/08/03 01:21:48;;;;;;;;;3.40;3.00;;;;;24.74;100.00;97431.09;6026116;28;96996;-63
2023/08/03 01:24:52;;;;;;;;;5.00;4.60;;;;;24.75;100.00;97423.63;6041929;28;96660;-63
2023/08/03 01:27:56;;;;;;;;;4.20;4.20;;;;;24.82;100.00;97427.41;6057083;28;97659;-63
2023/08/03 01:30:59;;;;;;;;;8.00;8.00;;;;;24.86;100.00;97431.06;6034752;28;96584;-63
2023/08/03 01:34:02;;;;;;;;;3.60;3.60;;;;;24.90;100.00;97431.19;6040951;28;96422;-62
2023/08/03 01:37:07;;;;;;;;;3.00;3.00;;;;;24.98;100.00;97441.25;6008329;28;99501;-63
2023/08/03 01:40:12;;;;;;;;;5.40;5.00;;;;;25.00;100.00;97431.50;6039053;28;97793;-63
2023/08/03 01:43:16;;;;;;;;;3.00;3.00;;;;;25.06;100.00;97428.47;6041728;28;96232;-62
2023/08/03 01:46:19;;;;;;;;;4.60;4.60;;;;;25.10;100.00;97410.06;6042641;28;96386;-63
2023/08/03 01:49:24;;;;;;;;;4.00;3.00;;;;;25.12;100.00;97414.06;6029184;28;96439;-62
2023/08/03 01:52:28;;;;;;;;;3.50;3.50;;;;;25.13;100.00;97401.91;6024299;28;98616;-63
2023/08/03 01:55:32;;;;;;;;;4.00;3.00;;;;;25.11;100.00;97397.91;6041395;28;96730;-62
2023/08/03 01:58:35;;;;;;;;;3.00;2.40;;;;;25.15;100.00;97390.53;6040641;28;96854;-62
2023/08/03 02:01:39;;;;;;;;;4.00;3.60;;;;;25.22;100.00;97388.75;6032181;28;96521;-63
2023/08/03 02:04:42;;;;;;;;;3.00;3.00;;;;;25.07;100.00;97367.44;6039037;28;97127;-62
2023/08/03 02:07:53;;;;;;;;;5.00;5.00;;;;;25.20;100.00;97388.31;6021644;28;96677;-63
2023/08/03 02:10:58;;;;;;;;;5.00;5.00;;;;;25.23;100.00;97382.06;6023843;28;97081;-63
2023/08/03 02:14:02;;;;;;;;;3.60;3.60;;;;;25.31;100.00;97385.84;6008706;28;97790;-63
2023/08/03 02:17:06;;;;;;;;;5.00;4.60;;;;;25.34;100.00;97383.16;6026761;28;96778;-63
2023/08/03 02:20:10;;;;;;;;;6.00;6.00;;;;;25.40;100.00;97394.75;6027958;28;98621;-63
2023/08/03 02:23:13;;;;;;;;;5.00;5.00;;;;;25.43;100.00;97408.63;6026525;28;98517;-62
2023/08/03 02:26:18;;;;;;;;;4.00;4.00;;;;;25.43;100.00;97416.91;6045163;28;96400;-63
2023/08/03 02:29:21;;;;;;;;;2.80;2.80;;;;;25.37;100.00;97401.75;6044545;28;97033;-63
2023/08/03 02:32:27;;;;;;;;;5.00;5.00;;;;;25.39;100.00;97423.47;6023165;28;97235;-63
2023/08/03 02:35:30;;;;;;;;;5.00;5.00;;;;;25.40;100.00;97430.63;6044138;28;97138;-62
2023/08/03 02:38:36;;;;;;;;;4.00;4.00;;;;;25.41;100.00;97438.50;6060487;28;96502;-62
2023/08/03 02:41:41;;;;;;;;;4.60;4.00;;;;;25.41;100.00;97440.50;6039758;28;96458;-63
2023/08/03 02:44:50;;;;;;;;;5.00;4.00;;;;;25.44;100.00;97448.06;6045446;28;96465;-62
2023/08/03 02:47:53;;;;;;;;;4.00;4.00;;;;;25.46;100.00;97454.03;6043255;28;96377;-63
2023/08/03 02:50:57;;;;;;;;;3.60;3.60;;;;;25.46;100.00;97456.78;6060827;28;96961;-62
2023/08/03 02:54:02;;;;;;;;;5.00;5.00;;;;;25.44;100.00;97461.84;6052273;28;96335;-63
2023/08/03 02:57:12;;;;;;;;;5.00;5.00;;;;;25.42;100.00;97464.97;6060567;28;96444;-63
2023/08/03 03:00:16;;;;;;;;;7.00;6.00;;;;;25.42;100.00;97464.97;6045141;28;96336;-63
2023/08/03 03:03:20;;;;;;;;;4.33;4.33;;;;;25.41;100.00;97468.88;6060162;28;96777;-63
2023/08/03 03:06:23;;;;;;;;;6.00;6.00;;;;;25.35;100.00;97473.06;6044409;28;97036;-63
2023/08/03 03:09:27;;;;;;;;;5.00;5.00;;;;;25.32;100.00;97478.44;6034205;28;96898;-62
2023/08/03 03:12:33;;;;;;;;;3.80;3.80;;;;;25.28;100.00;97488.59;6026637;28;98586;-63
2023/08/03 03:15:36;;;;;;;;;3.00;3.00;;;;;25.23;100.00;97495.16;6047976;28;96445;-62
2023/08/03 03:18:39;;;;;;;;;4.80;4.00;;;;;25.23;100.00;97508.16;6038931;28;97003;-63
2023/08/03 03:21:43;;;;;;;;;5.80;5.00;;;;;25.22;100.00;97504.59;6025766;28;96784;-62
2023/08/03 03:24:47;;;;;;;;;5.00;4.00;;;;;25.24;100.00;97507.00;6043642;28;98571;-62
2023/08/03 03:27:51;;;;;;;;;4.00;4.00;;;;;25.20;100.00;97528.16;6040662;28;97066;-63
2023/08/03 03:30:55;;;;;;;;;6.40;6.00;;;;;25.20;100.00;97542.75;6040535;28;97135;-62
2023/08/03 03:33:58;;;;;;;;;7.00;7.00;;;;;25.24;100.00;97546.41;6026317;28;99094;-62
2023/08/03 03:37:01;;;;;;;;;5.00;5.00;;;;;25.26;100.00;97562.63;6057765;28;96467;-62
2023/08/03 03:40:07;;;;;;;;;6.00;6.00;;;;;25.26;100.00;97554.34;6059469;28;96830;-62
2023/08/03 03:43:17;;;;;;;;;6.60;6.00;;;;;25.24;100.00;97562.97;6010530;28;96757;-63
2023/08/03 03:46:21;;;;;;;;;5.00;5.00;;;;;25.22;100.00;97561.69;6039755;28;96918;-62
2023/08/03 03:49:24;;;;;;;;;5.67;5.67;;;;;25.17;100.00;97559.22;6056031;28;96406;-63
2023/08/03 03:52:28;;;;;;;;;4.50;4.50;;;;;25.16;100.00;97565.88;6044418;28;96472;-63
2023/08/03 03:55:31;;;;;;;;;7.00;7.00;;;;;25.16;100.00;97582.41;6042404;28;96669;-62
2023/08/03 03:58:36;;;;;;;;;5.00;5.00;;;;;25.09;100.00;97579.44;6040565;28;96405;-63
2023/08/03 04:01:39;;;;;;;;;7.00;7.00;;;;;25.08;100.00;97597.13;6040102;28;99052;-63
2023/08/03 04:04:43;;;;;;;;;6.50;6.50;;;;;25.07;100.00;97601.06;6042120;28;96304;-62
2023/08/03 04:07:47;;;;;;;;;7.50;7.00;;;;;25.07;100.00;97612.88;6026743;28;96752;-63
2023/08/03 04:10:50;;;;;;;;;8.00;7.60;;;;;25.02;100.00;97602.88;6043334;28;96692;-63
2023/08/03 04:13:54;;;;;;;;;7.00;6.00;;;;;24.99;100.00;97603.59;6043091;28;99459;-64
2023/08/03 04:16:59;;;;;;;;;5.25;5.00;;;;;24.91;100.00;97601.75;6043768;28;96322;-64
2023/08/03 04:20:02;;;;;;;;;5.00;5.00;;;;;24.89;100.00;97590.25;6043138;28;97379;-63
2023/08/03 04:23:05;;;;;;;;;7.60;7.40;;;;;24.89;100.00;97592.22;6043029;28;96481;-63
2023/08/03 04:26:09;;;;;;;;;6.00;6.00;;;;;24.94;100.00;97576.25;6063593;28;96626;-63
2023/08/03 04:29:14;;;;;;;;;5.60;5.60;;;;;24.94;100.00;97579.00;6064978;28;96665;-62
2023/08/03 04:32:17;;;;;;;;;5.60;5.60;;;;;24.93;100.00;97587.59;6025349;28;96686;-63
2023/08/03 04:35:21;;;;;;;;;5.00;5.00;;;;;24.92;100.00;97592.31;6041066;28;96316;-63
2023/08/03 04:38:28;;;;;;;;;5.60;5.00;;;;;24.88;100.00;97607.16;6058392;28;96264;-63
2023/08/03 04:41:34;;;;;;;;;5.20;5.20;;;;;24.88;100.00;97601.63;6058611;28;96390;-63
2023/08/03 04:44:39;;;;;;;;;4.20;4.20;;;;;24.91;100.00;97596.25;6041657;28;96940;-63
2023/08/03 04:47:42;;;;;;;;;3.60;3.60;;;;;24.88;100.00;97618.16;6026249;28;96503;-63
2023/08/03 04:50:45;;;;;;;;;6.00;6.00;;;;;24.77;100.00;97628.84;6058099;28;96295;-62
2023/08/03 04:53:51;;;;;;;;;7.80;6.80;;;;;24.78;100.00;97607.56;6039669;28;96399;-63
2023/08/03 04:56:56;;;;;;;;;8.00;7.25;;;;;24.67;100.00;97590.72;6039549;28;99903;-63
2023/08/03 05:00:05;;;;;;;;;7.00;7.00;;;;;24.78;100.00;97607.56;6042319;28;97303;-62
2023/08/03 05:03:09;;;;;;;;;6.00;5.00;;;;;24.82;100.00;97609.31;6041024;28;96932;-63
2023/08/03 05:06:12;;;;;;;;;4.25;4.25;;;;;24.79;100.00;97600.91;6034379;28;96593;-62
2023/08/03 05:09:15;;;;;;;;;6.40;6.00;;;;;24.78;100.00;97605.63;6047540;28;96818;-62
2023/08/03 05:12:19;;;;;;;;;4.00;4.00;;;;;24.77;100.00;97598.53;6035004;28;96554;-63
2023/08/03 05:15:24;;;;;;;;;5.00;5.00;;;;;24.72;100.00;97587.72;6043253;28;96779;-63
2023/08/03 05:18:28;;;;;;;;;5.60;5.00;;;;;24.71;100.00;97590.81;6048499;28;96417;-64
2023/08/03 05:21:31;;;;;;;;;6.20;6.00;;;;;24.73;100.00;97585.78;6041958;28;96474;-63
2023/08/03 05:24:34;;;;;;;;;5.00;4.20;;;;;24.72;100.00;97586.94;6024959;28;97462;-63
2023/08/03 05:27:38;;;;;;;;;5.40;5.40;;;;;24.67;100.00;97589.91;6044746;28;96685;-62
2023/08/03 05:30:44;;;;;;;;;6.40;5.40;;;;;24.65;100.00;97589.44;6024250;28;100042;-64
2023/08/03 05:33:48;;;;;;;;;4.80;4.80;;;;;24.70;100.00;97589.22;6040100;28;97380;-63
2023/08/03 05:36:52;;;;;;;;;7.60;6.60;;;;;24.65;100.00;97587.50;6021325;28;98708;-63
2023/08/03 05:39:55;;;;;;;;;5.00;4.20;;;;;24.68;100.00;97595.06;6024406;28;98010;-63
2023/08/03 05:42:59;;;;;;;;;8.00;8.00;;;;;24.58;100.00;97573.50;6024557;28;96722;-63
2023/08/03 05:46:04;;;;;;;;;8.00;8.00;;;;;24.68;100.00;97589.56;6024433;28;98621;-63
2023/08/03 05:49:08;;;;;;;;;6.00;5.60;;;;;24.75;100.00;97588.97;6042302;28;96431;-62
2023/08/03 05:52:11;;;;;;;;;7.00;7.00;;;;;24.77;100.00;97594.97;6044802;28;96904;-63
2023/08/03 05:55:14;;;;;;;;;5.25;4.00;;;;;24.81;100.00;97593.94;6031723;28;98684;-63
2023/08/03 05:58:18;;;;;;;;;5.00;4.60;;;;;24.89;100.00;97581.19;6062987;28;96537;-63
2023/08/03 06:01:24;;;;;;;;;4.00;4.00;;;;;24.96;100.00;97578.66;6052730;28;96334;-64
2023/08/03 06:04:27;;;;;;;;;4.75;4.75;;;;;25.01;100.00;97583.94;6045490;28;97623;-63
2023/08/03 06:07:31;;;;;;;;;5.00;4.00;;;;;25.11;100.00;97574.38;6038635;28;99292;-62
2023/08/03 06:10:35;;;;;;;;;4.00;3.00;;;;;25.25;100.00;97575.63;6053089;28;96931;-63
2023/08/03 06:13:39;;;;;;;;;3.00;3.00;;;;;25.31;100.00;97578.94;6067736;28;97385;-64
2023/08/03 06:16:45;;;;;;;;;5.00;4.00;;;;;25.34;100.00;97592.03;6054183;28;96727;-62
2023/08/03 06:19:48;;;;;;;;;4.50;4.00;;;;;25.42;100.00;97583.59;6045891;28;96371;-63
2023/08/03 06:22:52;;;;;;;;;3.00;2.00;;;;;25.43;100.00;97573.38;6046133;28;96423;-62
2023/08/03 06:25:57;;;;;;;;;2.00;2.00;;;;;25.45;100.00;97573.84;6029419;28;96547;-63
2023/08/03 06:29:02;;;;;;;;;3.00;3.00;;;;;25.46;100.00;97572.69;6034408;28;96356;-62
2023/08/03 06:32:14;;;;;;;;;5.00;4.00;;;;;25.43;100.00;97576.13;6045491;28;96447;-63
2023/08/03 06:35:39;;;;;;;;;5.00;5.00;;;;;25.46;100.00;97589.25;6027778;28;99051;-62
2023/08/03 06:38:43;;;;;;;;;4.00;4.00;;;;;25.54;100.00;97593.00;6045760;28;96386;-63
2023/08/03 06:41:46;;;;;;;;;3.00;3.00;;;;;25.61;100.00;97607.03;6046225;28;97006;-62
2023/08/03 06:44:51;;;;;;;;;3.00;3.00;;;;;25.74;100.00;97614.91;6060636;28;96461;-62
2023/08/03 06:47:57;;;;;;;;;4.00;3.00;;;;;25.83;100.00;97623.84;6046196;28;96552;-63
2023/08/03 06:51:01;;;;;;;;;3.20;3.20;;;;;25.87;100.00;97634.97;6059839;28;96726;-63
2023/08/03 06:54:05;;;;;;;;;5.00;4.00;;;;;25.99;100.00;97636.91;6004904;29;98722;-62
2023/08/03 06:57:08;;;;;;;;;5.25;4.75;;;;;26.03;100.00;97640.56;6060529;28;96796;-62
2023/08/03 07:00:13;;;;;;;;;8.20;7.80;;;;;26.00;100.00;97628.22;6009711;29;98492;-63
2023/08/03 07:03:17;;;;;;;;;5.40;5.00;;;;;26.07;100.00;97628.44;6040297;28;98666;-62
2023/08/03 07:06:21;;;;;;;;;5.40;4.00;;;;;26.12;100.00;97625.44;6037869;28;96393;-62
2023/08/03 07:09:25;;;;;;;;;5.80;5.00;;;;;26.18;100.00;97629.53;6043796;28;97011;-62
2023/08/03 07:12:28;;;;;;;;;6.00;5.00;;;;;26.21;100.00;97628.03;6044960;28;96791;-63
2023/08/03 07:15:33;;;;;;;;;3.00;3.00;;;;;26.26;100.00;97641.59;6053160;28;96380;-62
2023/08/03 07:18:38;;;;;;;;;3.40;3.40;;;;;26.33;100.00;97652.84;6061606;28;96457;-62
2023/08/03 07:21:41;;;;;;;;;6.60;6.00;;;;;26.37;100.00;97650.19;6027910;28;97306;-62
2023/08/03 07:24:45;;;;;;;;;5.00;4.00;;;;;26.41;100.00;97651.06;6043535;28;97578;-63
2023/08/03 07:27:48;;;;;;;;;3.20;3.20;;;;;26.46;100.00;97656.34;6021033;28;96273;-62
2023/08/03 07:30:51;;;;;;;;;4.20;4.20;;;;;26.49;100.00;97673.00;6048929;28;96536;-62
2023/08/03 07:33:56;;;;;;;;;6.00;5.00;;;;;26.52;100.00;97688.91;6041325;28;97092;-63
2023/08/03 07:37:01;;;;;;;;;4.25;4.00;;;;;26.58;100.00;97692.22;6045974;28;96401;-63
2023/08/03 07:40:05;;;;;;;;;5.00;5.00;;;;;26.59;100.00;97710.38;6037166;28;97450;-63
2023/08/03 07:43:08;;;;;;;;;5.60;5.60;;;;;26.54;100.00;97728.03;6046992;28;96537;-62
2023/08/03 07:46:11;;;;;;;;;5.00;5.00;;;;;26.47;100.00;97740.84;6031980;28;96566;-63
2023/08/03 07:49:16;;;;;;;;;7.00;5.00;;;;;26.33;100.00;97762.56;6044059;28;96651;-62
2023/08/03 07:52:19;;;;;;;;;5.00;4.60;;;;;26.19;100.00;97771.25;6046820;28;98057;-62
2023/08/03 07:55:22;;;;;;;;;8.00;5.00;;;;;25.94;100.00;97783.50;6044393;28;96509;-62
2023/08/03 07:58:25;;;;;;;;;6.00;5.00;;;;;25.72;100.00;97777.31;6027341;28;100042;-62
2023/08/03 08:01:28;;;;;;;;;6.00;5.80;;;;;25.57;100.00;97780.78;6028471;28;96573;-62
2023/08/03 08:04:33;;;;;;;;;6.25;5.25;;;;;25.27;100.00;97793.97;6042166;28;98978;-62
2023/08/03 08:07:37;;;;;;;;;6.20;5.60;;;;;25.01;100.00;97794.31;6044063;28;96441;-63
2023/08/03 08:10:40;;;;;;;;;4.20;4.20;;;;;24.83;100.00;97792.84;6026064;28;96742;-63
2023/08/03 08:13:44;;;;;;;;;4.60;4.60;;;;;24.49;100.00;97782.97;6043043;28;96307;-63
2023/08/03 08:16:48;;;;;;;;;4.00;4.00;;;;;24.46;100.00;97780.09;6052125;28;96419;-62
2023/08/03 08:20:13;;;;;;;;;7.00;6.00;;;;;24.33;100.00;97786.72;6049389;28;96718;-63
2023/08/03 08:23:16;;;;;;;;;5.00;5.00;;;;;24.07;100.00;97787.72;6057931;28;96893;-62
2023/08/03 08:26:19;;;;;;;;;6.00;6.00;;;;;23.95;100.00;97790.38;6048706;28;96769;-63
2023/08/03 08:29:24;;;;;;;;;4.00;4.00;;;;;23.89;100.00;97785.44;6046588;28;99131;-63
2023/08/03 08:32:27;;;;;;;;;5.60;5.00;;;;;23.86;100.00;97784.13;6030256;28;96471;-63
2023/08/03 08:35:32;;;;;;;;;5.00;5.00;;;;;23.82;100.00;97793.41;6040125;28;97518;-63
2023/08/03 08:38:35;;;;;;;;;6.00;6.00;;;;;23.68;100.00;97810.97;6012266;28;97040;-62
2023/08/03 08:41:40;;;;;;;;;4.50;4.00;;;;;23.64;100.00;97809.22;6043303;28;96226;-62
2023/08/03 08:44:45;;;;;;;;;5.00;4.20;;;;;23.49;100.00;97824.34;6026617;28;96880;-63
2023/08/03 08:47:48;;;;;;;;;5.00;5.00;;;;;23.41;100.00;97824.38;6010890;28;96748;-63
2023/08/03 08:50:59;;;;;;;;;2.00;2.00;;;;;23.35;100.00;97812.75;6044951;28;96357;-63
2023/08/03 08:54:06;;;;;;;;;4.80;3.00;;;;;23.29;100.00;97817.63;6036268;28;97315;-62
2023/08/03 08:57:12;;;;;;;;;5.00;5.00;;;;;23.29;100.00;97820.38;6053875;28;97705;-63
2023/08/03 09:00:16;;;;;;;;;4.00;4.00;;;;;23.26;100.00;97823.00;6042503;28;96617;-62
2023/08/03 09:03:19;;;;;;;;;4.00;4.00;;;;;23.24;100.00;97828.81;6043681;28;96364;-62
2023/08/03 09:06:24;;;;;;;;;4.00;4.00;;;;;23.17;100.00;97825.75;6041733;28;96745;-62
2023/08/03 09:09:29;;;;;;;;;3.50;3.50;;;;;23.12;100.00;97819.63;6055404;28;96556;-62
2023/08/03 09:12:32;;;;;;;;;4.00;2.20;;;;;23.15;100.00;97821.72;6043133;28;96382;-63
2023/08/03 09:15:40;;;;;;;;;3.00;2.00;;;;;23.20;100.00;97810.56;6018652;29;96736;-62
2023/08/03 09:18:45;;;;;;;;;4.00;4.00;;;;;23.29;100.00;97817.63;6021103;28;96848;-62
2023/08/03 09:21:59;;;;;;;;;2.00;2.00;;;;;23.27;100.00;97821.81;6043301;28;96685;-63
2023/08/03 09:25:07;;;;;;;;;3.00;3.00;;;;;23.33;100.00;97812.25;6040238;28;96368;-62
2023/08/03 09:28:11;;;;;;;;;2.00;2.00;;;;;23.33;100.00;97806.75;6047471;28;96590;-63
2023/08/03 09:31:23;;;;;;;;;4.00;4.00;;;;;23.28;100.00;97798.69;6046809;28;96486;-63
2023/08/03 09:34:37;;;;;;;;;3.50;3.50;;;;;23.19;100.00;97790.50;6035874;28;96906;-63
2023/08/03 09:37:45;;;;;;;;;2.00;1.00;;;;;23.17;100.00;97781.75;6045950;28;96403;-63
2023/08/03 09:40:50;;;;;;;;;2.00;2.00;;;;;23.09;100.00;97762.56;6049439;28;98688;-63
2023/08/03 09:43:53;;;;;;;;;4.00;3.00;;;;;23.13;100.00;97758.81;6046372;28;96871;-63
2023/08/03 09:46:57;;;;;;;;;3.00;2.00;;;;;23.21;100.00;97779.94;6046106;28;97021;-63
2023/08/03 09:50:01;;;;;;;;;1.20;1.20;;;;;23.20;100.00;97800.38;6044650;28;96731;-63
2023/08/03 09:53:12;;;;;;;;;2.00;2.00;;;;;23.13;100.00;97789.06;6048809;28;96933;-63
2023/08/03 09:56:24;;;;;;;;;2.00;2.00;;;;;22.79;100.00;97778.19;6054965;28;96767;-62
2023/08/03 09:59:33;;;;;;;;;4.00;4.00;;;;;23.02;100.00;97779.56;6031459;28;96662;-63
2023/08/03 10:02:44;;;;;;;;;4.00;3.25;;;;;23.10;100.00;97781.47;6039090;28;96284;-63
2023/08/03 10:05:52;;;;;;;;;4.00;4.00;;;;;23.14;100.00;97778.88;6046958;28;96578;-63
2023/08/03 10:09:00;;;;;;;;;3.40;3.00;;;;;22.90;100.00;97773.97;6045218;28;98591;-63
2023/08/03 10:12:08;;;;;;;;;4.40;4.40;;;;;23.02;100.00;97752.06;6045320;28;96389;-62
2023/08/03 10:15:15;;;;;;;;;3.50;3.00;;;;;23.20;100.00;97758.31;6047385;28;96477;-63
2023/08/03 10:18:19;;;;;;;;;4.00;4.00;;;;;23.29;100.00;97743.38;6054269;28;96481;-63
2023/08/03 10:21:42;;;;;;;;;4.00;4.00;;;;;23.14;100.00;97740.38;6032956;28;96521;-63
2023/08/03 10:25:18;;;;;;;;;2.00;2.00;;;;;23.15;100.00;97773.06;6046067;28;96684;-63
2023/08/03 10:28:21;;;;;;;;;3.00;3.00;;;;;23.30;100.00;97772.50;6050786;28;96522;-63
2023/08/03 10:31:25;;;;;;;;;3.00;3.00;;;;;23.21;100.00;97757.94;6045759;28;96393;-64
2023/08/03 10:34:29;;;;;;;;;2.00;2.00;;;;;23.31;100.00;97754.84;6044412;28;97125;-63
2023/08/03 10:37:33;;;;;;;;;3.00;3.00;;;;;23.38;100.00;97729.56;6045550;28;96393;-62
2023/08/03 10:40:37;;;;;;;;;2.40;2.00;;;;;23.16;100.00;97758.16;6046130;28;96608;-63
2023/08/03 10:43:41;;;;;;;;;3.00;3.00;;;;;23.42;100.00;97765.47;6042859;28;96720;-63
2023/08/03 10:46:45;;;;;;;;;2.40;2.00;;;;;23.77;100.00;97780.66;6027774;28;96895;-63
2023/08/03 10:49:52;;;;;;;;;2.25;2.25;;;;;24.07;100.00;97770.38;6039769;28;96706;-63
2023/08/03 10:52:55;;;;;;;;;4.00;3.00;;;;;24.18;100.00;97779.88;6066057;28;97247;-63
2023/08/03 10:56:07;;;;;;;;;2.00;2.00;;;;;24.37;100.00;97776.63;6045802;28;96650;-63
2023/08/03 10:59:10;;;;;;;;;2.60;2.00;;;;;24.50;100.00;97803.06;6054131;28;98556;-64
2023/08/03 11:02:18;;;;;;;;;3.00;2.20;;;;;24.24;100.00;97794.25;6023913;28;99020;-63
2023/08/03 11:05:22;;;;;;;;;2.75;2.75;;;;;24.31;100.00;97791.75;6042311;28;97092;-63
2023/08/03 11:08:25;;;;;;;;;2.50;2.50;;;;;24.24;100.00;97789.53;6031057;28;96397;-63
2023/08/03 11:11:32;;;;;;;;;3.00;3.00;;;;;24.40;100.00;97801.53;6029839;28;96705;-63
2023/08/03 11:14:36;;;;;;;;;2.00;2.00;;;;;24.37;100.00;97806.94;6030440;28;96439;-63
2023/08/03 11:17:39;;;;;;;;;2.40;2.40;;;;;24.30;100.00;97801.97;6041097;28;98653;-63
2023/08/03 11:20:43;;;;;;;;;3.40;3.40;;;;;24.21;100.00;97795.72;6032618;28;96344;-63
2023/08/03 11:23:47;;;;;;;;;5.00;3.60;;;;;24.24;100.00;97803.31;6012090;28;97768;-63
2023/08/03 11:26:52;;;;;;;;;3.00;3.00;;;;;24.32;100.00;97816.22;6017695;28;98526;-63
2023/08/03 11:29:56;;;;;;;;;3.00;3.00;;;;;24.37;100.00;97820.72;6009062;28;98563;-63
2023/08/03 11:33:00;;;;;;;;;5.00;4.00;;;;;24.40;100.00;97815.31;6038489;28;96969;-63
2023/08/03 11:36:03;;;;;;;;;4.60;4.60;;;;;24.39;100.00;97823.91;6024510;28;96477;-62
2023/08/03 11:39:06;;;;;;;;;4.60;4.60;;;;;24.42;100.00;97824.06;6031591;28;98699;-63
2023/08/03 11:42:12;;;;;;;;;4.20;3.80;;;;;24.45;100.00;97817.88;6023582;28;97285;-62
2023/08/03 11:45:15;;;;;;;;;4.00;3.60;;;;;24.47;100.00;97817.53;6067450;28;96437;-63
2023/08/03 11:48:24;;;;;;;;;3.00;3.00;;;;;24.46;100.00;97829.69;6036636;28;97714;-63
2023/08/03 11:51:32;;;;;;;;;4.00;3.00;;;;;24.45;100.00;97839.09;6035581;28;96262;-63
2023/08/03 11:54:37;;;;;;;;;4.00;4.00;;;;;24.45;100.00;97823.38;6040330;28;96459;-63
2023/08/03 12:01:05;;;;;;;;;4.00;3.00;;;;;24.33;100.00;97839.88;6044193;28;96475;-62
2023/08/03 12:04:09;;;;;;;;;3.00;2.00;;;;;24.23;100.00;97812.72;6042630;28;96789;-63
2023/08/03 12:07:15;;;;;;;;;2.60;2.60;;;;;24.15;100.00;97841.91;6043580;28;97086;-63
2023/08/03 12:10:21;;;;;;;;;4.00;4.00;;;;;24.18;100.00;97840.47;6044891;28;96313;-63
2023/08/03 12:13:26;;;;;;;;;5.00;4.20;;;;;24.17;100.00;97834.16;6044295;28;96613;-63
2023/08/03 12:16:29;;;;;;;;;4.00;4.00;;;;;24.12;100.00;97815.03;6044125;28;96475;-63
2023/08/03 12:19:33;;;;;;;;;2.00;2.00;;;;;24.10;100.00;97830.28;6031339;28;98466;-63
2023/08/03 12:22:37;;;;;;;;;3.00;3.00;;;;;24.06;100.00;97816.38;6032620;28;96729;-63
2023/08/03 12:25:40;;;;;;;;;3.00;3.00;;;;;24.11;100.00;97834.66;6030707;28;96825;-63
2023/08/03 12:28:47;;;;;;;;;3.00;2.00;;;;;24.23;100.00;97862.31;6029536;28;98675;-63
2023/08/03 12:31:50;;;;;;;;;4.00;3.40;;;;;24.34;100.00;97862.69;6043229;28;96411;-63
2023/08/03 12:34:53;;;;;;;;;3.00;3.00;;;;;24.43;100.00;97856.00;6035691;28;96874;-63
2023/08/03 12:37:57;;;;;;;;;5.33;5.33;;;;;24.52;100.00;97837.44;6047788;28;97060;-63
2023/08/03 12:41:01;;;;;;;;;4.40;4.40;;;;;24.55;100.00;97855.22;6050669;28;96803;-63
2023/08/03 12:44:06;;;;;;;;;3.00;3.00;;;;;24.65;100.00;97849.28;6037591;28;96319;-63
2023/08/03 12:47:09;;;;;;;;;4.00;3.33;;;;;24.74;100.00;97843.69;6040729;28;98602;-63
2023/08/03 12:50:12;;;;;;;;;2.60;2.60;;;;;24.79;100.00;97838.78;6042721;28;97598;-63
2023/08/03 12:53:18;;;;;;;;;3.25;3.25;;;;;24.81;100.00;97833.75;6029969;28;96721;-63
2023/08/03 12:56:22;;;;;;;;;3.00;3.00;;;;;24.91;100.00;97874.69;6036031;28;97107;-63
2023/08/03 12:59:27;;;;;;;;;3.50;3.50;;;;;24.91;100.00;97860.91;6033279;28;96330;-63
2023/08/03 13:02:31;;;;;;;;;5.00;5.00;;;;;25.01;100.00;97860.50;6031337;28;96717;-63
2023/08/03 13:05:43;;;;;;;;;5.00;5.00;;;;;25.06;100.00;97855.91;6039694;28;96448;-63
2023/08/03 13:08:48;;;;;;;;;4.25;4.25;;;;;25.07;100.00;97893.38;6043561;28;96327;-63
2023/08/03 13:11:51;;;;;;;;;4.50;4.50;;;;;25.08;100.00;97894.94;6054282;28;96917;-63
2023/08/03 13:14:56;;;;;;;;;3.40;3.00;;;;;25.10;100.00;97895.44;6043157;28;96401;-63
2023/08/03 13:17:59;;;;;;;;;3.00;3.00;;;;;25.10;100.00;97895.44;6042897;28;96869;-63
2023/08/03 13:21:05;;;;;;;;;3.40;3.40;;;;;25.07;100.00;97885.09;6043261;28;96307;-63
2023/08/03 13:24:08;;;;;;;;;4.40;4.00;;;;;25.06;100.00;97886.22;6043753;28;96399;-63
2023/08/03 13:27:13;;;;;;;;;4.20;4.00;;;;;25.04;100.00;97872.78;6039776;28;99001;-62
2023/08/03 13:30:19;;;;;;;;;3.60;3.00;;;;;25.08;100.00;97881.97;6041603;28;96591;-63
2023/08/03 13:33:23;;;;;;;;;5.50;5.00;;;;;25.06;100.00;97880.72;6042608;28;96388;-63
2023/08/03 13:36:26;;;;;;;;;6.00;5.00;;;;;24.96;100.00;97857.13;6042273;28;97533;-63
2023/08/03 13:39:29;;;;;;;;;6.00;6.00;;;;;24.82;100.00;97865.69;6032255;28;98613;-63
2023/08/03 13:42:32;;;;;;;;;3.00;3.00;;;;;24.82;100.00;97871.19;6037072;28;97355;-63
2023/08/03 13:45:37;;;;;;;;;5.00;4.00;;;;;24.77;100.00;97881.63;6025838;28;96946;-63
2023/08/03 13:48:40;;;;;;;;;5.60;5.40;;;;;24.72;100.00;97855.09;6008909;28;96837;-63
2023/08/03 13:51:44;;;;;;;;;4.20;4.20;;;;;24.72;100.00;97855.09;6038823;28;96618;-63
2023/08/03 13:54:47;;;;;;;;;3.00;3.00;;;;;24.73;100.00;97844.88;6035651;28;99036;-63
2023/08/03 13:57:50;;;;;;;;;4.00;4.00;;;;;24.69;100.00;97847.47;6041502;28;96514;-63
2023/08/03 14:00:58;;;;;;;;;6.00;4.75;;;;;24.65;100.00;97887.88;6026100;28;98505;-63
2023/08/03 14:04:18;;;;;;;;;5.00;5.00;;;;;24.77;100.00;97904.50;6050233;28;96655;-64
2023/08/03 14:07:22;;;;;;;;;5.40;5.00;;;;;24.80;100.00;97892.78;6042973;28;96421;-63
2023/08/03 14:10:28;;;;;;;;;5.80;5.20;;;;;24.89;100.00;97888.00;6042440;28;96429;-63
2023/08/03 14:13:36;;;;;;;;;6.40;5.00;;;;;24.88;100.00;97860.78;6027852;28;96819;-63
2023/08/03 14:16:48;;;;;;;;;3.00;3.00;;;;;24.86;100.00;97880.41;6023579;28;99115;-63
2023/08/03 14:19:57;;;;;;;;;4.00;4.00;;;;;24.82;100.00;97912.56;6057279;28;96335;-63
2023/08/03 14:23:20;;;;;;;;;5.40;5.00;;;;;24.78;100.00;97903.31;6060690;28;96304;-64